Аэропорт
Суварнабхуми (VTBS)

 VTBS / BKK

Thailand
TH-10
Бангкок
 13.68110, 100.74700  / 5 ft

 VTBS 201600Z 07006G16KT 020V100 8000 FEW030 28/16 Q1015 NOSIG
 TAF VTBS 201100Z 2012/2118 14008KT 9000 FEW030 BECMG 2022/2024 08010KT

2020 © VATRUS division (Privacy Policy)